Flight Track Log - Related Links

Times and Time Zones

All times are in EST time to prevent confusion due to time zone crossing. See the ASQ4283 flight status page for this flight to view local times or setup timezone preferences in your user account.

Time Position Orientation Groundspeed Altitude Reporting Facility
EST Latitude Longitude Course Direction KTS MPH feet Rate Location/Type
Fri 12:32:43 PM 41.9333 -87.9167 180° South 157 181 2,500  Level Chicago TRACON
Fri 12:33:49 PM 41.8833 -87.9500 206° Southwest 221 254 4,700 1,682 Climbing Chicago TRACON
Fri 12:34:55 PM 41.8050 -87.9422 176° South 245 282 6,200 1,828 Climbing Chicago Center
Fri 12:35:57 PM 41.7236 -87.9311 174° South 286 329 8,600 2,129 Climbing Chicago Center
Fri 12:36:00 PM 41.4308 -87.5738 159° South  Level FlightAware Approximate
Fri 12:36:59 PM 41.6583 -87.8664 143° Southeast 300 345 10,600  Level Chicago Center
Fri 12:37:00 PM 41.3140 -87.5449 174° South  Level FlightAware Approximate
Fri 12:38:00 PM 41.2049 -87.5333 180° South  Level FlightAware Approximate
Fri 12:38:00 PM 41.5900 -87.7947 142° Southeast 310 357 12,300  Level Chicago Center
Fri 12:39:02 PM 41.4997 -87.7575 163° South 334 384 12,900 581 Climbing Chicago Center
Fri 12:40:04 PM 41.4008 -87.7172 163° South 360 414 13,500 629 Climbing Chicago Center
Fri 12:41:06 PM 41.2961 -87.6733 163° South 385 443 14,200 823 Climbing Chicago Center
Fri 12:42:08 PM 41.1681 -87.6214 163° South 397 457 15,200 871 Climbing Chicago Center
Fri 12:43:10 PM 41.0622 -87.5781 163° South 398 458 16,000 774 Climbing Chicago Center
Fri 12:44:12 PM 40.9542 -87.5339 163° South 403 464 16,800 823 Climbing Chicago Center
Fri 12:45:14 PM 40.8478 -87.4903 163° South 401 461 17,700 919 Climbing Chicago Center
Fri 12:46:16 PM 40.7403 -87.4483 164° South 401 461 18,700 871 Climbing Chicago Center
Fri 12:47:18 PM 40.6319 -87.4058 163° South 406 467 19,500 823 Climbing Chicago Center
Fri 12:48:20 PM 40.5239 -87.3633 163° South 405 466 20,400 968 Climbing Chicago Center
Fri 12:49:22 PM 40.4061 -87.2933 156° South 430 495 21,500 1,113 Climbing Chicago Center
Fri 12:50:24 PM 40.3128 -87.2044 144° Southeast 418 481 22,700 1,161 Climbing Chicago Center
Fri 12:51:26 PM 40.2186 -87.1172 145° Southeast 418 481 23,900 1,171 Climbing Chicago Center
Fri 12:52:27 PM 40.1272 -87.0308 144° Southeast 408 470 25,100 1,245 Climbing Chicago Center
Fri 12:53:12 PM 40.0522 -86.9636 146° Southeast 406 467 26,100 1,234 Climbing Indianapolis Center
Fri 12:54:14 PM 39.9625 -86.8822 145° Southeast 399 459 27,300 1,268 Climbing Indianapolis Center
Fri 12:55:15 PM 39.8550 -86.7933 148° Southeast 388 447 28,700 1,268 Climbing Indianapolis Center
Fri 12:56:17 PM 39.7667 -86.7222 148° Southeast 380 437 29,900 1,161 Climbing Indianapolis Center
Fri 12:57:19 PM 39.6911 -86.6247 135° Southeast 393 452 31,100 1,171 Climbing Indianapolis Center
Fri 12:58:20 PM 39.6353 -86.4978 120° Southeast 411 473 32,300 927 Climbing Indianapolis Center
Fri 12:59:22 PM 39.5697 -86.3786 125° Southeast 415 478 33,000 341 Climbing Indianapolis Center
Fri 01:00:23 PM 39.4856 -86.2314 126° Southeast 427 491 33,000  Level Indianapolis Center
Fri 01:01:25 PM 39.4081 -86.0997 127° Southeast 452 520 33,000  Level Indianapolis Center
Fri 01:02:27 PM 39.3289 -85.9642 127° Southeast 469 540 33,000  Level Indianapolis Center
Fri 01:03:28 PM 39.2514 -85.8314 127° Southeast 470 541 33,000  Level Indianapolis Center
Fri 01:04:30 PM 39.1722 -85.6989 128° Southeast 468 539 33,000 98 Level Indianapolis Center
Fri 01:05:31 PM 39.0939 -85.5644 127° Southeast 470 541 33,200 488 Climbing Indianapolis Center
Fri 01:06:33 PM 38.9972 -85.4017 127° Southeast 478 550 34,000 774 Climbing Indianapolis Center
Fri 01:07:35 PM 38.9156 -85.2672 128° Southeast 478 550 34,800 488 Climbing Indianapolis Center
Fri 01:08:36 PM 38.8356 -85.1319 127° Southeast 478 550 35,000 98 Climbing Indianapolis Center
Fri 01:09:38 PM 38.7531 -84.9958 128° Southeast 482 555 35,000  Level Indianapolis Center
Fri 01:10:39 PM 38.6692 -84.8547 127° Southeast 492 566 35,000  Level Indianapolis Center
Fri 01:11:41 PM 38.5772 -84.7006 127° Southeast 501 577 35,000  Level Indianapolis Center
Fri 01:12:43 PM 38.4911 -84.5583 128° Southeast 503 579 35,000  Level Indianapolis Center
Fri 01:13:44 PM 38.4036 -84.4233 130° Southeast 498 573 35,000  Level Indianapolis Center
Fri 01:14:46 PM 38.3189 -84.2850 128° Southeast 494 568 35,000  Level Indianapolis Center
Fri 01:15:48 PM 38.2047 -84.1569 139° Southeast 472 543 35,000  Level Indianapolis Center
Fri 01:16:49 PM 38.0975 -84.0714 148° Southeast 458 527 35,000 -293 Level Indianapolis Center
Fri 01:17:51 PM 37.9917 -83.9811 146° Southeast 457 526 34,400 -732 Descending Indianapolis Center
Fri 01:18:52 PM 37.8861 -83.8947 147° Southeast 453 521 33,500 -683 Descending Indianapolis Center
Fri 01:19:54 PM 37.7822 -83.7956 143° Southeast 460 529 33,000 -242 Descending Indianapolis Center
Fri 01:20:56 PM 37.6931 -83.6775 134° Southeast 462 532 33,000  Level Indianapolis Center
Fri 01:21:58 PM 37.6017 -83.5617 135° Southeast 463 533 33,000  Level Indianapolis Center
Fri 01:22:59 PM 37.4936 -83.4247 135° Southeast 469 540 33,000 -293 Level Indianapolis Center
Fri 01:24:01 PM 37.4003 -83.3081 135° Southeast 472 543 32,400 -1,113 Descending Indianapolis Center
Fri 01:25:03 PM 37.3081 -83.1936 135° Southeast 466 536 30,700 -1,610 Descending Indianapolis Center
Fri 01:26:04 PM 37.2111 -83.0733 135° Southeast 480 552 29,100 -829 Descending Indianapolis Center
Fri 01:27:06 PM 37.1167 -82.9567 135° Southeast 479 551 29,000 -48 Descending Indianapolis Center
Fri 01:28:08 PM 37.0275 -82.8486 136° Southeast 449 517 29,000  Level Indianapolis Center
Fri 01:29:09 PM 36.9350 -82.7358 136° Southeast 448 516 29,000  Level Indianapolis Center
Fri 01:30:11 PM 36.8333 -82.6325 141° Southeast 462 532 29,000  Level Indianapolis Center
Fri 01:31:13 PM 36.7272 -82.5417 146° Southeast 461 531 29,000 -290 Level Indianapolis Center
Fri 01:32:15 PM 36.6219 -82.4503 145° Southeast 460 529 28,400 -769 Descending Indianapolis Center
Fri 01:33:10 PM 36.5119 -82.3572 146° Southeast 459 528 27,500 -991 Descending Atlanta Center
Fri 01:34:10 PM 36.4083 -82.2664 145° Southeast 447 514 26,500 -1,050 Descending Atlanta Center
Fri 01:35:10 PM 36.3069 -82.1811 146° Southeast 447 514 25,400 -1,000 Descending Atlanta Center
Fri 01:36:10 PM 36.2225 -82.1083 145° Southeast 433 498 24,500 -950 Descending Atlanta Center
Fri 01:37:10 PM 36.1272 -82.0258 145° Southeast 426 490 23,500 -1,500 Descending Atlanta Center
Fri 01:38:10 PM 36.0319 -81.9436 145° Southeast 426 490 21,500 -2,400 Descending Atlanta Center
Fri 01:39:10 PM 35.9367 -81.8639 146° Southeast 426 490 18,700 -2,750 Descending Atlanta Center
Fri 01:40:10 PM 35.8458 -81.7894 146° Southeast 406 467 16,000 -2,450 Descending Atlanta Center
Fri 01:41:10 PM 35.7653 -81.7200 145° Southeast 379 436 13,800 -2,492 Descending Atlanta Center
Fri 01:41:15 PM 35.7503 -81.7078 147° Southeast 349 402 13,300 -1,800 Descending Atlanta Center
Fri 01:42:10 PM 35.6867 -81.6558 146° Southeast 357 411 12,000 -1,083 Descending Atlanta Center
Fri 01:42:27 PM 35.6550 -81.6286 145° Southeast 331 381 12,000  Level Atlanta Center
Fri 01:43:10 PM 35.6083 -81.5892 145° Southeast 349 402 12,000  Level Atlanta Center
Fri 01:43:28 PM 35.5844 -81.5517 128° Southeast 333 383 12,000 -100 Level Atlanta Center
Fri 01:44:10 PM 35.5503 -81.5042 131° Southeast 335 386 11,900 -689 Descending Atlanta Center
Fri 01:44:29 PM 35.5286 -81.4664 125° Southeast 319 367 11,300 -1,800 Descending Atlanta Center
Fri 01:45:10 PM 35.4833 -81.4017 131° Southeast 341 392 10,100 -1,279 Descending Atlanta Center
Fri 01:45:30 PM 35.4639 -81.3692 126° Southeast 386 444 10,000 -100 Descending Atlanta Center
Fri 01:46:10 PM 35.4186 -81.2992 128° Southeast 358 412 10,000  Level Atlanta Center
Fri 01:46:37 PM 35.3864 -81.2569 133° Southeast 380 437 10,000  Level Atlanta Center
Fri 01:47:10 PM 35.3494 -81.2022 130° Southeast 370 426 10,000  Level Atlanta Center
Fri 01:47:31 PM 35.3258 -81.1672 130° Southeast 373 429 10,000 -200 Level Atlanta Center
Fri 01:48:10 PM 35.2933 -81.1125 126° Southeast 358 412 9,800 -493 Descending Atlanta Center
Fri 01:48:44 PM 35.2611 -81.0831 143° Southeast 271 312 9,400 -700 Descending Atlanta Center
Fri 01:49:10 PM 35.2275 -81.0717 165° South 294 338 9,100 -1,082 Descending Atlanta Center
Fri 01:49:45 PM 35.1900 -81.0703 178° South 220 253 8,300 -1,500 Descending Atlanta Center
Fri 01:50:10 PM 35.1647 -81.0661 172° South 252 290 7,600 -2,066 Descending Atlanta Center
Fri 01:50:46 PM 35.1250 -81.0625 176° South 226 260 6,200 -2,400 Descending Atlanta Center
Fri 01:51:10 PM 35.0981 -81.0611 178° South 246 283 5,200 -1,527 Descending Atlanta Center
Fri 01:51:41 PM 35.0803 -81.0261 122° Southeast 256 295 4,800 -918 Descending Atlanta Center
Fri 01:52:48 PM 35.0972 -80.9519 74° East 226 260 3,700 -1,426 Descending Atlanta Center
Fri 01:53:43 PM 35.1453 -80.9475 North 174 200 1,900 -1,486 Descending Atlanta Center
Fri 01:54:37 PM 35.1850 -80.9511 356° North 145 167 1,000 -1,000 Descending Atlanta Center
Fri 01:56:00 PM 35.2000 -80.9333 39° Northeast  Level FlightAware Approximate
Fri 02:03:00 PM 35.2137 -80.9491 39° Northeast  Level Estimated

Login

Don't have an account? Register now (free) for customized features, flight alerts, and more!